Time,TemperatureF,DewpointF,PressureIn,WindDirection,WindDirectionDegrees,WindSpeedMPH,WindSpeedGustMPH,Humidity,HourlyPrecipIn,Conditions,Clouds,dailyrainin,SolarRadiationWatts/m^2,SoftwareType,DateUTC
2013-10-16 00:00:00,61.0,61.0,-100.00,SSW,202,6.0,-999.0,100,-99.99,,,-99.99,0.000000,,2013-10-16 04:00:00,
2013-10-16 00:44:00,61.0,61.0,-100.00,SSW,202,6.0,-999.0,100,-99.99,,,-99.99,0.000000,,2013-10-16 04:44:00,
2013-10-16 00:54:00,61.0,61.0,-100.00,SSW,202,6.0,-999.0,100,-99.99,,,-99.99,0.000000,,2013-10-16 04:54:00,
2013-10-16 01:00:00,58.0,55.0,-100.00,West,270,7.0,-999.0,89,-99.99,,,-99.99,0.000000,,2013-10-16 05:00:00,
2013-10-16 01:43:00,58.0,55.0,-100.00,West,270,7.0,-999.0,89,-99.99,,,-99.99,0.000000,,2013-10-16 05:43:00,
2013-10-16 01:53:00,58.0,55.0,-100.00,West,270,7.0,-999.0,89,-99.99,,,-99.99,0.000000,,2013-10-16 05:53:00,
2013-10-16 02:00:00,56.0,50.0,-100.00,West,270,6.0,-999.0,79,-99.99,,,-99.99,0.000000,,2013-10-16 06:00:00,
2013-10-16 02:43:00,56.0,50.0,-100.00,West,270,6.0,-999.0,79,-99.99,,,-99.99,0.000000,,2013-10-16 06:43:00,
2013-10-16 02:52:00,56.0,50.0,-100.00,West,270,6.0,-999.0,79,-99.99,,,-99.99,0.000000,,2013-10-16 06:52:00,
2013-10-16 03:00:00,55.0,47.0,-100.00,WSW,247,4.0,-999.0,75,-99.99,,,-99.99,0.000000,,2013-10-16 07:00:00,
2013-10-16 03:42:00,55.0,47.0,-100.00,WSW,247,4.0,-999.0,75,-99.99,,,-99.99,0.000000,,2013-10-16 07:42:00,
2013-10-16 03:53:00,55.0,47.0,-100.00,WSW,247,4.0,-999.0,75,-99.99,,,-99.99,0.000000,,2013-10-16 07:53:00,
2013-10-16 04:00:00,53.0,46.0,-100.00,WSW,247,4.0,-999.0,77,-99.99,,,-99.99,0.000000,,2013-10-16 08:00:00,
2013-10-16 04:42:00,53.0,46.0,-100.00,WSW,247,4.0,-999.0,77,-99.99,,,-99.99,0.000000,,2013-10-16 08:42:00,
2013-10-16 04:52:00,53.0,46.0,-100.00,WSW,247,4.0,-999.0,77,-99.99,,,-99.99,0.000000,,2013-10-16 08:52:00,
2013-10-16 06:00:00,50.0,45.0,-100.00,SW,225,5.0,-999.0,82,-99.99,,,-99.99,0.000000,,2013-10-16 10:00:00,
2013-10-16 06:42:00,50.0,45.0,-100.00,SW,225,5.0,-999.0,82,-99.99,,,-99.99,0.000000,,2013-10-16 10:42:00,
2013-10-16 06:53:00,50.0,45.0,-100.00,SW,225,5.0,-999.0,82,-99.99,,,-99.99,0.000000,,2013-10-16 10:53:00,
2013-10-16 07:00:00,50.0,46.0,-100.00,SW,225,4.0,-999.0,84,-99.99,,,-99.99,0.000000,,2013-10-16 11:00:00,
2013-10-16 07:42:00,50.0,46.0,-100.00,SW,225,4.0,-999.0,84,-99.99,,,-99.99,0.000000,,2013-10-16 11:42:00,
2013-10-16 07:52:00,50.0,46.0,-100.00,SW,225,4.0,-999.0,84,-99.99,,,-99.99,0.000000,,2013-10-16 11:52:00,
2013-10-16 09:00:00,50.0,45.0,-100.00,SW,225,6.0,-999.0,83,-99.99,,,-99.99,8.120000,,2013-10-16 13:00:00,
2013-10-16 09:42:00,50.0,45.0,-100.00,SW,225,6.0,-999.0,83,-99.99,,,-99.99,8.120000,,2013-10-16 13:42:00,
2013-10-16 09:52:00,50.0,45.0,-100.00,SW,225,6.0,-999.0,83,-99.99,,,-99.99,8.120000,,2013-10-16 13:52:00,
2013-10-16 10:00:00,48.0,45.0,-100.00,South,180,5.0,-999.0,88,-99.99,,,-99.99,25.520000,,2013-10-16 14:00:00,
2013-10-16 10:42:00,48.0,45.0,-100.00,South,180,5.0,-999.0,88,-99.99,,,-99.99,25.520000,,2013-10-16 14:42:00,
2013-10-16 10:52:00,48.0,45.0,-100.00,South,180,5.0,-999.0,88,-99.99,,,-99.99,25.520000,,2013-10-16 14:52:00,
2013-10-16 11:00:00,48.0,45.0,-100.00,SSW,202,5.0,-999.0,89,-99.99,,,-99.99,40.599998,,2013-10-16 15:00:00,
2013-10-16 11:43:00,48.0,45.0,-100.00,SSW,202,5.0,-999.0,89,-99.99,,,-99.99,40.599998,,2013-10-16 15:43:00,
2013-10-16 11:53:00,48.0,45.0,-100.00,SSW,202,5.0,-999.0,89,-99.99,,,-99.99,40.599998,,2013-10-16 15:53:00,
2013-10-16 12:00:00,49.0,45.0,-100.00,SSW,202,6.0,-999.0,88,-99.99,,,-99.99,53.360001,,2013-10-16 16:00:00,
2013-10-16 12:42:00,49.0,45.0,-100.00,SSW,202,6.0,-999.0,88,-99.99,,,-99.99,53.360001,,2013-10-16 16:42:00,
2013-10-16 12:53:00,49.0,45.0,-100.00,SSW,202,6.0,-999.0,88,-99.99,,,-99.99,53.360001,,2013-10-16 16:53:00,
2013-10-16 14:00:00,48.0,48.0,-100.00,SSW,202,5.0,-999.0,98,0.04,,,-99.99,69.599998,,2013-10-16 18:00:00,
2013-10-16 14:42:00,48.0,48.0,-100.00,SSW,202,5.0,-999.0,98,0.04,,,-99.99,69.599998,,2013-10-16 18:42:00,
2013-10-16 14:52:00,48.0,48.0,-100.00,SSW,202,5.0,-999.0,98,0.04,,,-99.99,69.599998,,2013-10-16 18:52:00,
2013-10-16 15:00:00,49.0,49.0,-100.00,South,180,4.0,-999.0,101,0.02,,,-99.99,55.680000,,2013-10-16 19:00:00,
2013-10-16 15:42:00,49.0,49.0,-100.00,South,180,4.0,-999.0,101,0.02,,,-99.99,55.680000,,2013-10-16 19:42:00,
2013-10-16 15:52:00,49.0,49.0,-100.00,South,180,4.0,-999.0,101,0.02,,,-99.99,55.680000,,2013-10-16 19:52:00,
2013-10-16 16:00:00,50.0,50.0,-100.00,South,180,4.0,-999.0,102,0.01,,,-99.99,52.200001,,2013-10-16 20:00:00,
2013-10-16 16:43:00,50.0,50.0,-100.00,South,180,4.0,-999.0,102,0.01,,,-99.99,52.200001,,2013-10-16 20:43:00,
2013-10-16 16:52:00,50.0,50.0,-100.00,South,180,4.0,-999.0,102,0.01,,,-99.99,52.200001,,2013-10-16 20:52:00,
2013-10-16 17:00:00,51.0,51.0,-100.00,SW,225,4.0,-999.0,98,-99.99,,,-99.99,40.599998,,2013-10-16 21:00:00,
2013-10-16 17:44:00,51.0,51.0,-100.00,SW,225,4.0,-999.0,98,-99.99,,,-99.99,40.599998,,2013-10-16 21:44:00,
2013-10-16 17:54:00,51.0,51.0,-100.00,SW,225,4.0,-999.0,98,-99.99,,,-99.99,40.599998,,2013-10-16 21:54:00,
2013-10-16 18:00:00,51.0,50.0,-100.00,SW,225,4.0,-999.0,95,-99.99,,,-99.99,17.400000,,2013-10-16 22:00:00,
2013-10-16 18:42:00,51.0,50.0,-100.00,SW,225,4.0,-999.0,95,-99.99,,,-99.99,17.400000,,2013-10-16 22:42:00,
2013-10-16 18:54:00,51.0,50.0,-100.00,SW,225,4.0,-999.0,95,-99.99,,,-99.99,17.400000,,2013-10-16 22:54:00,
2013-10-16 19:00:00,51.0,50.0,-100.00,SSW,202,4.0,-999.0,94,-99.99,,,-99.99,4.640000,,2013-10-16 23:00:00,
2013-10-16 19:42:00,51.0,50.0,-100.00,SSW,202,4.0,-999.0,94,-99.99,,,-99.99,4.640000,,2013-10-16 23:42:00,
2013-10-16 19:53:00,51.0,50.0,-100.00,SSW,202,4.0,-999.0,94,-99.99,,,-99.99,4.640000,,2013-10-16 23:53:00,
2013-10-16 21:00:00,50.0,50.0,-100.00,South,180,3.0,-999.0,98,-99.99,,,-99.99,0.000000,,2013-10-17 01:00:00,
2013-10-16 21:43:00,50.0,50.0,-100.00,South,180,3.0,-999.0,98,-99.99,,,-99.99,0.000000,,2013-10-17 01:43:00,
2013-10-16 21:52:00,50.0,50.0,-100.00,South,180,3.0,-999.0,98,-99.99,,,-99.99,0.000000,,2013-10-17 01:52:00,
2013-10-16 22:00:00,50.0,49.0,-100.00,South,180,2.0,-999.0,98,-99.99,,,-99.99,0.000000,,2013-10-17 02:00:00,
2013-10-16 22:53:00,50.0,49.0,-100.00,South,180,2.0,-999.0,98,-99.99,,,-99.99,0.000000,,2013-10-17 02:53:00,
2013-10-16 23:00:00,50.0,49.0,-100.00,South,180,3.0,-999.0,97,-99.99,,,-99.99,0.000000,,2013-10-17 03:00:00,
2013-10-16 23:45:00,50.0,49.0,-100.00,South,180,3.0,-999.0,97,-99.99,,,-99.99,0.000000,,2013-10-17 03:45:00,
2013-10-16 23:54:00,50.0,49.0,-100.00,South,180,3.0,-999.0,97,-99.99,,,-99.99,0.000000,,2013-10-17 03:54:00,